createdAt,value
2018-05-01T00:00:55.944Z,98405
2018-05-01T00:05:56.470Z,98398
2018-05-01T00:08:23.140Z,98397
2018-05-01T00:10:50.552Z,98401
2018-05-01T00:13:17.222Z,98388
2018-05-01T00:15:44.672Z,98386
2018-05-01T00:18:12.084Z,98383
2018-05-01T00:20:38.744Z,98380
2018-05-01T00:23:05.400Z,98372
2018-05-01T00:25:32.056Z,98373
2018-05-01T00:27:58.762Z,98372
2018-05-01T00:30:25.404Z,98365
2018-05-01T00:32:52.072Z,98362
2018-05-01T00:35:18.732Z,98357
2018-05-01T00:37:45.382Z,98358
2018-05-01T00:40:12.089Z,98356
2018-05-01T00:42:38.764Z,98356
2018-05-01T00:45:05.435Z,98359
2018-05-01T00:47:32.091Z,98358
2018-05-01T00:49:59.504Z,98362
2018-05-01T00:52:43.396Z,98363
2018-05-01T00:55:10.823Z,98369
2018-05-01T00:57:37.518Z,98376
2018-05-01T01:00:05.636Z,98373
2018-05-01T01:02:32.324Z,98373
2018-05-01T01:04:58.997Z,98382
2018-05-01T01:07:25.697Z,98377
2018-05-01T01:09:52.371Z,98382
2018-05-01T01:12:19.052Z,98375
2018-05-01T01:14:46.463Z,98382
2018-05-01T01:17:13.115Z,98380
2018-05-01T01:19:39.824Z,98377
2018-05-01T01:22:06.476Z,98367
2018-05-01T01:24:33.141Z,98364
2018-05-01T01:26:59.804Z,98368
2018-05-01T01:29:26.451Z,98368
2018-05-01T01:31:53.196Z,98370
2018-05-01T01:34:19.916Z,98380
2018-05-01T01:36:46.939Z,98377
2018-05-01T01:39:13.231Z,98367
2018-05-01T01:41:39.525Z,98354
2018-05-01T01:44:05.848Z,98337
2018-05-01T01:46:32.886Z,98326
2018-05-01T01:48:59.932Z,98319
2018-05-01T01:51:26.967Z,98323
2018-05-01T01:53:53.270Z,98336
2018-05-01T01:56:19.572Z,98348
2018-05-01T01:58:45.900Z,98352
2018-05-01T02:01:12.940Z,98357
2018-05-01T02:03:39.244Z,98359
2018-05-01T02:06:06.289Z,98357
2018-05-01T02:08:33.332Z,98352
2018-05-01T02:11:00.385Z,98357
2018-05-01T02:13:27.449Z,98353
2018-05-01T02:15:53.739Z,98359
2018-05-01T02:18:30.430Z,98375
2018-05-01T02:20:57.588Z,98383
2018-05-01T02:23:24.639Z,98388
2018-05-01T02:25:51.684Z,98388
2018-05-01T02:28:18.758Z,98383
2018-05-01T02:30:45.055Z,98379
2018-05-01T02:33:12.092Z,98379
2018-05-01T02:35:39.140Z,98376
2018-05-01T02:38:06.189Z,98378
2018-05-01T02:40:33.232Z,98378
2018-05-01T02:43:00.278Z,98379
2018-05-01T02:45:26.606Z,98384
2018-05-01T02:47:52.899Z,98388
2018-05-01T02:50:19.199Z,98396
2018-05-01T02:52:45.500Z,98397
2018-05-01T02:55:12.580Z,98395
2018-05-01T02:57:38.965Z,98399
2018-05-01T03:00:06.065Z,98406
2018-05-01T03:02:32.399Z,98413
2018-05-01T03:04:58.712Z,98424
2018-05-01T03:07:25.020Z,98420
2018-05-01T03:09:52.160Z,98411
2018-05-01T03:12:18.424Z,98404
2018-05-01T03:14:44.720Z,98402
2018-05-01T03:17:11.764Z,98399
2018-05-01T03:19:38.061Z,98406
2018-05-01T03:22:04.372Z,98414
2018-05-01T03:24:30.684Z,98411
2018-05-01T03:26:56.982Z,98414
2018-05-01T03:29:23.296Z,98416
2018-05-01T03:31:49.601Z,98418
2018-05-01T03:34:15.917Z,98417
2018-05-01T03:36:42.220Z,98422
2018-05-01T03:39:09.341Z,98421
2018-05-01T03:41:35.584Z,98423
2018-05-01T03:44:02.625Z,98419
2018-05-01T03:46:29.672Z,98432
2018-05-01T03:48:56.712Z,98438
2018-05-01T03:51:23.004Z,98441
2018-05-01T03:53:49.311Z,98442
2018-05-01T03:56:15.632Z,98448
2018-05-01T03:58:41.936Z,98445
2018-05-01T04:01:08.996Z,98439
2018-05-01T04:03:36.029Z,98440
2018-05-01T04:06:03.074Z,98443
2018-05-01T04:08:30.276Z,98442
2018-05-01T04:10:56.604Z,98450
2018-05-01T04:13:22.931Z,98446
2018-05-01T04:15:49.224Z,98455
2018-05-01T04:18:16.272Z,98454
2018-05-01T04:20:42.704Z,98462
2018-05-01T04:23:09.738Z,98460
2018-05-01T04:25:36.026Z,98464
2018-05-01T04:28:02.356Z,98466
2018-05-01T04:30:28.664Z,98461
2018-05-01T04:32:54.969Z,98456
2018-05-01T04:35:22.012Z,98449
2018-05-01T04:37:49.076Z,98454
2018-05-01T04:40:15.391Z,98453
2018-05-01T04:42:41.711Z,98447
2018-05-01T04:45:08.758Z,98445
2018-05-01T04:47:35.859Z,98434
2018-05-01T04:50:02.181Z,98433
2018-05-01T04:52:28.477Z,98434
2018-05-01T04:54:55.535Z,98430
2018-05-01T04:57:21.863Z,98436
2018-05-01T04:59:48.175Z,98440
2018-05-01T05:02:15.219Z,98439
2018-05-01T05:04:42.264Z,98443
2018-05-01T05:07:08.561Z,98440
2018-05-01T05:09:34.927Z,98443
2018-05-01T05:12:01.197Z,98440
2018-05-01T05:14:27.504Z,98436
2018-05-01T05:16:54.544Z,98433
2018-05-01T05:19:21.596Z,98420
2018-05-01T05:21:47.922Z,98419
2018-05-01T05:24:14.983Z,98415
2018-05-01T05:26:41.296Z,98407
2018-05-01T05:29:08.596Z,98400
2018-05-01T05:31:34.897Z,98394
2018-05-01T05:34:01.211Z,98398
2018-05-01T05:36:28.261Z,98393
2018-05-01T05:38:55.303Z,98384
2018-05-01T05:41:22.348Z,98381
2018-05-01T05:43:49.383Z,98372
2018-05-01T05:46:16.436Z,98374
2018-05-01T05:48:43.502Z,98372
2018-05-01T05:51:09.809Z,98368
2018-05-01T05:53:36.869Z,98372
2018-05-01T05:56:03.964Z,98368
2018-05-01T05:58:30.282Z,98357
2018-05-01T06:00:56.581Z,98345
2018-05-01T06:03:22.891Z,98341
2018-05-01T06:05:49.949Z,98328
2018-05-01T06:08:17.068Z,98320
2018-05-01T06:10:43.382Z,98315
2018-05-01T06:13:09.709Z,98313
2018-05-01T06:15:36.029Z,98308
2018-05-01T06:18:02.351Z,98306
2018-05-01T06:20:28.667Z,98305
2018-05-01T06:22:54.984Z,98294
2018-05-01T06:25:21.321Z,98295
2018-05-01T06:27:47.607Z,98297
2018-05-01T06:30:13.914Z,98313
2018-05-01T06:32:40.251Z,98341
2018-05-01T06:35:06.567Z,98348
2018-05-01T06:37:32.948Z,98370
2018-05-01T06:39:59.208Z,98373
2018-05-01T06:42:25.524Z,98375
2018-05-01T06:44:51.826Z,98386
2018-05-01T06:47:18.116Z,98393
2018-05-01T06:49:44.431Z,98398
2018-05-01T06:52:10.790Z,98394
2018-05-01T06:54:37.104Z,98397
2018-05-01T06:57:03.416Z,98404
2018-05-01T06:59:29.746Z,98405
2018-05-01T07:01:56.082Z,98417
2018-05-01T07:04:22.430Z,98425
2018-05-01T07:06:48.766Z,98431
2018-05-01T07:09:15.086Z,98436
2018-05-01T07:11:41.393Z,98440
2018-05-01T07:14:07.709Z,98438
2018-05-01T07:16:34.010Z,98437
2018-05-01T07:19:00.315Z,98446
2018-05-01T07:21:26.630Z,98446
2018-05-01T07:23:52.917Z,98441
2018-05-01T07:26:19.996Z,98446
2018-05-01T07:28:46.289Z,98450
2018-05-01T07:31:13.344Z,98424
2018-05-01T07:33:40.396Z,98444
2018-05-01T07:36:06.688Z,98447
2018-05-01T07:38:32.985Z,98443
2018-05-01T07:40:59.338Z,98446
2018-05-01T07:43:25.640Z,98442
2018-05-01T07:45:51.948Z,98448
2018-05-01T07:48:18.248Z,98449
2018-05-01T07:50:44.568Z,98449
2018-05-01T07:53:10.883Z,98443
2018-05-01T07:55:37.223Z,98442
2018-05-01T07:58:03.546Z,98445
2018-05-01T08:00:29.910Z,98435
2018-05-01T08:02:56.980Z,98447
2018-05-01T08:05:23.300Z,98456
2018-05-01T08:07:49.616Z,98454
2018-05-01T08:10:16.843Z,98452
2018-05-01T08:12:43.183Z,98449
2018-05-01T08:15:10.268Z,98448
2018-05-01T08:17:36.580Z,98448
2018-05-01T08:20:03.625Z,98444
2018-05-01T08:22:30.760Z,98442
2018-05-01T08:24:57.913Z,98440
2018-05-01T08:27:25.287Z,98445
2018-05-01T08:29:52.101Z,98445
2018-05-01T08:32:18.966Z,98450
2018-05-01T08:34:45.888Z,98440
2018-05-01T08:37:13.853Z,98437
2018-05-01T08:39:40.804Z,98439
2018-05-01T08:42:08.462Z,98435
2018-05-01T08:44:35.356Z,98437
2018-05-01T08:47:04.138Z,98436
2018-05-01T08:49:31.090Z,98430
2018-05-01T08:51:58.007Z,98425
2018-05-01T08:54:24.979Z,98424
2018-05-01T08:56:52.651Z,98430
2018-05-01T08:59:20.331Z,98434
2018-05-01T09:01:47.306Z,98430
2018-05-01T09:04:15.078Z,98426
2018-05-01T09:06:41.961Z,98428
2018-05-01T09:09:09.665Z,98427
2018-05-01T09:11:36.598Z,98426
2018-05-01T09:14:03.549Z,98426
2018-05-01T09:16:30.468Z,98430
2018-05-01T09:18:58.160Z,98424
2018-05-01T09:21:25.178Z,98425
2018-05-01T09:23:52.892Z,98420
2018-05-01T09:26:19.836Z,98418
2018-05-01T09:28:46.797Z,98415
2018-05-01T09:31:13.863Z,98411
2018-05-01T09:33:41.563Z,98409
2018-05-01T09:36:08.480Z,98410
2018-05-01T09:38:36.185Z,98407
2018-05-01T09:41:04.047Z,98409
2018-05-01T09:43:30.956Z,98406
2018-05-01T09:45:57.873Z,98402
2018-05-01T09:48:25.608Z,98398
2018-05-01T09:50:54.189Z,98396
2018-05-01T09:53:23.344Z,98395
2018-05-01T09:55:50.998Z,98311
2018-05-01T09:58:18.730Z,98399
2018-05-01T10:00:46.425Z,98400
2018-05-01T10:03:15.438Z,98403
2018-05-01T10:05:42.981Z,98405
2018-05-01T10:08:11.293Z,98407
2018-05-01T10:10:38.897Z,98401
2018-05-01T10:13:08.088Z,98405
2018-05-01T10:15:35.698Z,98413
2018-05-01T10:18:03.285Z,98414
2018-05-01T10:20:30.898Z,98411
2018-05-01T10:22:58.435Z,98408
2018-05-01T10:25:26.801Z,98409
2018-05-01T10:27:54.159Z,98410
2018-05-01T10:30:21.069Z,98415
2018-05-01T10:32:48.002Z,98415
2018-05-01T10:35:14.727Z,98416
2018-05-01T10:37:41.431Z,98418
2018-05-01T10:40:08.134Z,98415
2018-05-01T10:42:34.841Z,98408
2018-05-01T10:45:01.503Z,98403
2018-05-01T10:47:28.224Z,98397
2018-05-01T10:49:55.656Z,98390
2018-05-01T10:52:22.355Z,98385
2018-05-01T10:54:49.052Z,98379
2018-05-01T10:57:16.488Z,98376
2018-05-01T10:59:43.201Z,98377
2018-05-01T11:02:09.896Z,98368
2018-05-01T11:04:37.366Z,98373
2018-05-01T11:07:04.043Z,98370
2018-05-01T11:09:30.743Z,98375
2018-05-01T11:11:57.545Z,98373
2018-05-01T11:14:24.213Z,98372
2018-05-01T11:16:51.628Z,98369
2018-05-01T11:19:18.328Z,98363
2018-05-01T11:21:45.046Z,98369
2018-05-01T11:24:11.707Z,98362
2018-05-01T11:26:38.393Z,98364
2018-05-01T11:29:05.064Z,98353
2018-05-01T11:31:32.487Z,98352
2018-05-01T11:33:59.176Z,98355
2018-05-01T11:36:26.116Z,98362
2018-05-01T11:38:52.842Z,98356
2018-05-01T11:41:20.313Z,98358
2018-05-01T11:43:47.079Z,98360
2018-05-01T11:46:13.798Z,98361
2018-05-01T11:48:40.546Z,98363
2018-05-01T11:51:08.187Z,98353
2018-05-01T11:53:34.868Z,98353
2018-05-01T11:56:01.626Z,98351
2018-05-01T11:58:29.926Z,98345
2018-05-01T12:00:57.422Z,98347
2018-05-01T12:03:25.124Z,98342
2018-05-01T12:05:51.884Z,98336
2018-05-01T12:08:19.408Z,98341
2018-05-01T12:10:46.126Z,98334
2018-05-01T12:13:12.848Z,98336
2018-05-01T12:15:39.544Z,98339
2018-05-01T12:18:06.288Z,98332
2018-05-01T12:20:32.996Z,98334
2018-05-01T12:22:59.741Z,98332
2018-05-01T12:25:26.450Z,98332
2018-05-01T12:27:53.239Z,98333
2018-05-01T12:30:20.584Z,98329
2018-05-01T12:32:47.429Z,98326
2018-05-01T12:35:14.161Z,98324
2018-05-01T12:37:40.949Z,98327
2018-05-01T12:40:07.721Z,98331
2018-05-01T12:42:34.459Z,98340
2018-05-01T12:45:01.158Z,98338
2018-05-01T12:47:28.643Z,98333
2018-05-01T12:49:56.383Z,98332
2018-05-01T12:52:23.183Z,98331
2018-05-01T12:54:49.912Z,98317
2018-05-01T12:57:16.639Z,98310
2018-05-01T12:59:43.901Z,98301
2018-05-01T13:02:10.586Z,98304
2018-05-01T13:04:37.314Z,98301
2018-05-01T13:07:04.799Z,98298
2018-05-01T13:09:32.454Z,98292
2018-05-01T13:11:59.293Z,98289
2018-05-01T13:14:26.085Z,98288
2018-05-01T13:16:52.743Z,98288
2018-05-01T13:19:19.425Z,98283
2018-05-01T13:21:46.098Z,98277
2018-05-01T13:24:12.921Z,98278
2018-05-01T13:26:39.674Z,98280
2018-05-01T13:29:06.378Z,98269
2018-05-01T13:31:33.128Z,98267
2018-05-01T13:33:59.903Z,98260
2018-05-01T13:36:26.699Z,98256
2018-05-01T13:38:53.376Z,98255
2018-05-01T13:41:20.694Z,98253
2018-05-01T13:43:47.403Z,98256
2018-05-01T13:46:14.849Z,98259
2018-05-01T13:48:42.376Z,98260
2018-05-01T13:51:09.129Z,98256
2018-05-01T13:53:35.858Z,98258
2018-05-01T13:56:02.633Z,98256
2018-05-01T13:58:30.063Z,98263
2018-05-01T14:00:57.585Z,98262
2018-05-01T14:03:24.275Z,98265
2018-05-01T14:05:51.019Z,98257
2018-05-01T14:08:17.767Z,98244
2018-05-01T14:10:45.586Z,98238
2018-05-01T14:13:12.304Z,98233
2018-05-01T14:15:39.037Z,98222
2018-05-01T14:18:05.744Z,98217
2018-05-01T14:20:33.174Z,98200
2018-05-01T14:22:59.851Z,98200
2018-05-01T14:25:27.363Z,98196
2018-05-01T14:27:54.054Z,98191
2018-05-01T14:30:20.781Z,98184
2018-05-01T14:32:48.195Z,98170
2018-05-01T14:35:14.953Z,98164
2018-05-01T14:37:41.642Z,98157
2018-05-01T14:40:08.343Z,98150
2018-05-01T14:42:35.756Z,98150
2018-05-01T14:45:02.444Z,98141
2018-05-01T14:47:29.884Z,98139
2018-05-01T14:49:56.613Z,98135
2018-05-01T14:52:23.333Z,98136
2018-05-01T14:54:50.045Z,98136
2018-05-01T14:57:16.696Z,98130
2018-05-01T14:59:44.597Z,98131
2018-05-01T15:02:11.333Z,98141
2018-05-01T15:04:38.013Z,98146
2018-05-01T15:07:04.894Z,98139
2018-05-01T15:09:31.605Z,98135
2018-05-01T15:11:58.436Z,98138
2018-05-01T15:14:25.847Z,98141
2018-05-01T15:16:52.577Z,98154
2018-05-01T15:19:19.301Z,98161
2018-05-01T15:21:45.989Z,98153
2018-05-01T15:24:13.796Z,98144
2018-05-01T15:26:40.473Z,98138
2018-05-01T15:29:07.169Z,98124
2018-05-01T15:31:33.902Z,98125
2018-05-01T15:34:00.624Z,98123
2018-05-01T15:36:27.433Z,98126
2018-05-01T15:38:54.389Z,98115
2018-05-01T15:41:21.122Z,98105
2018-05-01T15:43:47.854Z,98105
2018-05-01T15:46:14.709Z,98107
2018-05-01T15:48:41.437Z,98096
2018-05-01T15:51:08.181Z,98092
2018-05-01T15:53:34.897Z,98093
2018-05-01T15:56:01.639Z,98090
2018-05-01T15:58:28.372Z,98087
2018-05-01T16:00:55.071Z,98087
2018-05-01T16:03:23.430Z,98081
2018-05-01T16:05:50.873Z,98082
2018-05-01T16:08:18.484Z,98078
2018-05-01T16:10:45.222Z,98075
2018-05-01T16:13:12.649Z,98072
2018-05-01T16:15:40.111Z,98059
2018-05-01T16:18:07.577Z,98052
2018-05-01T16:20:34.294Z,98040
2018-05-01T16:23:01.741Z,98038
2018-05-01T16:25:28.445Z,98041
2018-05-01T16:27:55.141Z,98038
2018-05-01T16:30:22.597Z,98027
2018-05-01T16:32:50.057Z,98016
2018-05-01T16:35:17.552Z,98013
2018-05-01T16:37:44.249Z,98020
2018-05-01T16:40:11.686Z,98033
2018-05-01T16:42:39.152Z,98025
2018-05-01T16:45:06.630Z,98026
2018-05-01T16:47:33.314Z,98026
2018-05-01T16:50:00.002Z,98031
2018-05-01T16:52:26.732Z,98032
2018-05-01T16:54:54.164Z,98026
2018-05-01T16:57:20.878Z,98023
2018-05-01T16:59:47.637Z,98012
2018-05-01T17:02:15.152Z,98013
2018-05-01T17:04:41.937Z,98018
2018-05-01T17:07:08.636Z,98017
2018-05-01T17:09:35.357Z,98016
2018-05-01T17:12:02.040Z,98025
2018-05-01T17:14:28.796Z,98019
2018-05-01T17:16:55.484Z,98015
2018-05-01T17:19:22.189Z,98013
2018-05-01T17:21:48.874Z,98021
2018-05-01T17:24:15.619Z,98025
2018-05-01T17:26:42.304Z,98026
2018-05-01T17:29:09.819Z,98022
2018-05-01T17:31:36.441Z,98016
2018-05-01T17:34:03.116Z,98024
2018-05-01T17:36:29.802Z,98023
2018-05-01T17:38:56.466Z,98030
2018-05-01T17:41:23.149Z,98034
2018-05-01T17:43:50.610Z,98037
2018-05-01T17:46:18.055Z,98030
2018-05-01T17:48:45.559Z,98035
2018-05-01T17:51:12.214Z,98033
2018-05-01T17:53:38.891Z,98031
2018-05-01T17:56:05.564Z,98038
2018-05-01T17:58:32.234Z,98039
2018-05-01T18:00:58.936Z,98038
2018-05-01T18:03:31.730Z,98039
2018-05-01T18:05:58.401Z,98038
2018-05-01T18:08:25.142Z,98042
2018-05-01T18:10:51.870Z,98042
2018-05-01T18:13:18.582Z,98044
2018-05-01T18:15:45.282Z,98043
2018-05-01T18:18:11.934Z,98045
2018-05-01T18:20:39.365Z,98037
2018-05-01T18:23:06.084Z,98027
2018-05-01T18:25:32.766Z,98028
2018-05-01T18:28:00.265Z,98033
2018-05-01T18:30:26.963Z,98041
2018-05-01T18:32:54.414Z,98043
2018-05-01T18:35:22.824Z,98042
2018-05-01T18:37:50.554Z,98037
2018-05-01T18:40:17.974Z,98042
2018-05-01T18:42:45.189Z,98048
2018-05-01T18:45:11.852Z,98040
2018-05-01T18:47:38.532Z,98023
2018-05-01T18:50:05.236Z,98013
2018-05-01T18:52:32.108Z,98026
2018-05-01T18:54:59.584Z,98027
2018-05-01T18:57:27.041Z,98019
2018-05-01T18:59:54.592Z,98027
2018-05-01T19:02:22.015Z,98028
2018-05-01T19:04:48.747Z,98033
2018-05-01T19:07:15.436Z,98033
2018-05-01T19:09:42.104Z,98029
2018-05-01T19:12:08.869Z,98030
2018-05-01T19:14:35.641Z,98036
2018-05-01T19:17:03.864Z,98032
2018-05-01T19:19:30.588Z,98048
2018-05-01T19:21:58.022Z,98064
2018-05-01T19:24:25.545Z,98063
2018-05-01T19:26:53.069Z,98062
2018-05-01T19:29:19.786Z,98072
2018-05-01T19:31:46.488Z,98078
2018-05-01T19:34:13.194Z,98088
2018-05-01T19:36:39.889Z,98093
2018-05-01T19:39:07.388Z,98094
2018-05-01T19:41:34.136Z,98099
2018-05-01T19:44:00.816Z,98105
2018-05-01T19:46:28.309Z,98107
2018-05-01T19:48:54.989Z,98117
2018-05-01T19:51:21.681Z,98126
2018-05-01T19:53:48.452Z,98127
2018-05-01T19:56:15.187Z,98125
2018-05-01T19:58:41.909Z,98131
2018-05-01T20:01:08.649Z,98137
2018-05-01T20:03:35.399Z,98136
2018-05-01T20:06:03.149Z,98138
2018-05-01T20:08:29.901Z,98146
2018-05-01T20:10:56.597Z,98147
2018-05-01T20:13:24.062Z,98138
2018-05-01T20:15:50.839Z,98148
2018-05-01T20:18:17.600Z,98139
2018-05-01T20:20:44.273Z,98130
2018-05-01T20:23:11.709Z,98142
2018-05-01T20:25:38.455Z,98140
2018-05-01T20:28:05.932Z,98142
2018-05-01T20:30:33.495Z,98140
2018-05-01T20:33:06.224Z,98129
2018-05-01T20:35:33.006Z,98126
2018-05-01T20:37:59.787Z,98121
2018-05-01T20:40:26.484Z,98121
2018-05-01T20:42:53.962Z,98119
2018-05-01T20:45:20.664Z,98119
2018-05-01T20:47:48.110Z,98120
2018-05-01T20:50:15.259Z,98121
2018-05-01T20:52:42.769Z,98120
2018-05-01T20:55:10.329Z,98127
2018-05-01T20:57:38.040Z,98122
2018-05-01T21:00:04.763Z,98121
2018-05-01T21:02:31.467Z,98116
2018-05-01T21:04:58.189Z,98108
2018-05-01T21:07:24.948Z,98101
2018-05-01T21:09:51.642Z,98106
2018-05-01T21:12:18.310Z,98106
2018-05-01T21:14:45.020Z,98104
2018-05-01T21:17:12.502Z,98098
2018-05-01T21:19:39.176Z,98091
2018-05-01T21:22:05.954Z,98089
2018-05-01T21:24:32.590Z,98094
2018-05-01T21:27:00.029Z,98094
2018-05-01T21:29:27.249Z,98094
2018-05-01T21:31:53.999Z,98087
2018-05-01T21:34:20.714Z,98085
2018-05-01T21:36:47.476Z,98091
2018-05-01T21:39:14.244Z,98092
2018-05-01T21:41:41.691Z,98095
2018-05-01T21:44:08.392Z,98095
2018-05-01T21:46:35.057Z,98093
2018-05-01T21:49:01.764Z,98092
2018-05-01T21:51:28.471Z,98098
2018-05-01T21:53:55.124Z,98104
2018-05-01T21:56:22.562Z,98105
2018-05-01T21:58:50.077Z,98103
2018-05-01T22:01:16.828Z,98101
2018-05-01T22:03:43.523Z,98093
2018-05-01T22:06:10.309Z,98088
2018-05-01T22:08:37.041Z,98080
2018-05-01T22:11:03.700Z,98075
2018-05-01T22:13:30.403Z,98076
2018-05-01T22:15:57.044Z,98077
2018-05-01T22:18:23.721Z,98078
2018-05-01T22:20:51.215Z,98080
2018-05-01T22:23:17.904Z,98078
2018-05-01T22:25:44.575Z,98078
2018-05-01T22:28:12.016Z,98078
2018-05-01T22:30:38.716Z,98072
2018-05-01T22:33:05.386Z,98078
2018-05-01T22:35:32.094Z,98084
2018-05-01T22:37:58.809Z,98077
2018-05-01T22:40:25.561Z,98071
2018-05-01T22:42:52.957Z,98072
2018-05-01T22:45:19.661Z,98074
2018-05-01T22:47:46.344Z,98067
2018-05-01T22:50:13.491Z,98067
2018-05-01T22:52:40.164Z,98072
2018-05-01T22:55:06.837Z,98067
2018-05-01T22:57:33.501Z,98067
2018-05-01T23:00:00.177Z,98059
2018-05-01T23:02:26.851Z,98062
2018-05-01T23:04:53.549Z,98064
2018-05-01T23:07:20.957Z,98056
2018-05-01T23:09:47.612Z,98053
2018-05-01T23:12:14.334Z,98043
2018-05-01T23:14:41.037Z,98038
2018-05-01T23:17:07.694Z,98032
2018-05-01T23:19:34.344Z,98033
2018-05-01T23:22:01.014Z,98033
2018-05-01T23:24:28.430Z,98028
2018-05-01T23:26:55.107Z,98023
2018-05-01T23:29:22.524Z,98020
2018-05-01T23:31:49.184Z,98011
2018-05-01T23:34:15.853Z,98003
2018-05-01T23:36:43.254Z,98009
2018-05-01T23:39:09.922Z,98006
2018-05-01T23:41:50.050Z,98011
2018-05-01T23:44:16.733Z,98007
2018-05-01T23:46:43.388Z,98009
2018-05-01T23:49:10.049Z,98011
2018-05-01T23:51:36.713Z,98009
2018-05-01T23:54:03.401Z,98000
2018-05-01T23:56:30.096Z,97995
2018-05-01T23:58:56.763Z,97989
